createdAt,value
2023-04-04T00:01:07.236Z,2.42
2023-04-04T00:03:35.937Z,2.10
2023-04-04T00:06:04.556Z,2.10
2023-04-04T00:08:33.093Z,2.25
2023-04-04T00:11:03.528Z,2.20
2023-04-04T00:13:32.113Z,2.37
2023-04-04T00:16:00.768Z,2.25
2023-04-04T00:18:29.393Z,2.10
2023-04-04T00:20:57.929Z,2.77
2023-04-04T00:23:27.181Z,2.10
2023-04-04T00:25:55.821Z,2.05
2023-04-04T00:28:25.925Z,2.45
2023-04-04T00:30:56.304Z,2.38
2023-04-04T00:33:25.025Z,2.45
2023-04-04T00:35:53.796Z,2.05
2023-04-04T00:38:22.355Z,2.38
2023-04-04T00:40:52.237Z,2.20
2023-04-04T00:43:21.237Z,2.47
2023-04-04T00:45:53.099Z,2.15
2023-04-04T00:48:24.479Z,2.00
2023-04-04T00:50:53.046Z,2.20
2023-04-04T00:53:21.657Z,2.42
2023-04-04T00:55:50.465Z,2.45
2023-04-04T00:58:19.338Z,2.57
2023-04-04T01:00:48.392Z,2.10
2023-04-04T01:03:19.596Z,2.13
2023-04-04T01:05:48.474Z,2.13
2023-04-04T01:08:22.684Z,2.42
2023-04-04T01:10:51.806Z,2.70
2023-04-04T01:13:22.097Z,2.35
2023-04-04T01:15:52.384Z,2.30
2023-04-04T01:18:25.163Z,2.00
2023-04-04T01:20:58.644Z,3.60
2023-04-04T01:23:42.811Z,2.10
2023-04-04T01:26:14.803Z,2.28
2023-04-04T01:28:43.601Z,2.03
2023-04-04T01:31:16.733Z,2.00
2023-04-04T01:33:50.575Z,2.42
2023-04-04T01:36:26.964Z,2.00
2023-04-04T01:39:00.644Z,2.90
2023-04-04T01:41:34.968Z,2.90
2023-04-04T01:44:04.991Z,2.58
2023-04-04T01:46:33.961Z,2.90
2023-04-04T01:49:02.614Z,2.65
2023-04-04T01:51:35.548Z,2.42
2023-04-04T01:54:05.363Z,2.33
2023-04-04T01:56:35.393Z,2.10
2023-04-04T01:59:04.149Z,3.10
2023-04-04T02:01:33.475Z,2.25
2023-04-04T02:04:02.515Z,2.25
2023-04-04T02:06:31.321Z,2.60
2023-04-04T02:09:01.036Z,2.65
2023-04-04T02:11:29.717Z,3.20
2023-04-04T02:13:59.759Z,3.03
2023-04-04T02:16:48.913Z,2.20
2023-04-04T02:19:17.450Z,2.20
2023-04-04T02:21:46.008Z,2.92
2023-04-04T02:24:15.444Z,2.30
2023-04-04T02:26:44.079Z,2.47
2023-04-04T02:29:14.037Z,2.60
2023-04-04T02:31:42.846Z,2.55
2023-04-04T02:34:11.503Z,2.10
2023-04-04T02:36:40.427Z,2.30
2023-04-04T02:39:09.464Z,2.10
2023-04-04T02:41:39.605Z,2.20
2023-04-04T02:44:08.980Z,2.28
2023-04-04T02:46:40.507Z,2.78
2023-04-04T02:49:12.674Z,2.10
2023-04-04T02:51:46.201Z,2.53
2023-04-04T02:54:14.845Z,2.10
2023-04-04T02:56:47.171Z,2.25
2023-04-04T02:59:16.016Z,3.73
2023-04-04T03:01:46.188Z,3.20
2023-04-04T03:04:14.987Z,2.95
2023-04-04T03:06:48.339Z,2.20
2023-04-04T03:09:17.360Z,2.65
2023-04-04T03:11:46.694Z,3.55
2023-04-04T03:14:15.546Z,2.10
2023-04-04T03:16:45.618Z,2.65
2023-04-04T03:19:14.253Z,3.65
2023-04-04T03:21:43.592Z,2.80
2023-04-04T03:24:12.673Z,2.97
2023-04-04T03:26:42.442Z,2.53
2023-04-04T03:29:13.017Z,2.40
2023-04-04T03:31:41.915Z,2.65
2023-04-04T03:34:12.013Z,3.65
2023-04-04T03:36:41.053Z,2.80
2023-04-04T03:39:09.684Z,3.13
2023-04-04T03:41:38.252Z,2.28
2023-04-04T03:44:08.408Z,3.13
2023-04-04T03:46:37.192Z,2.90
2023-04-04T03:49:06.034Z,2.43
2023-04-04T03:51:35.963Z,2.40
2023-04-04T03:54:06.128Z,2.72
2023-04-04T03:56:34.821Z,2.75
2023-04-04T03:59:06.951Z,2.75
2023-04-04T04:01:35.597Z,2.40
2023-04-04T04:04:04.583Z,2.22
2023-04-04T04:06:33.962Z,3.38
2023-04-04T04:09:04.091Z,3.03
2023-04-04T04:11:32.721Z,2.25
2023-04-04T04:14:02.077Z,3.15
2023-04-04T04:16:30.945Z,2.80
2023-04-04T04:19:01.326Z,3.88
2023-04-04T04:21:40.603Z,2.60
2023-04-04T04:24:11.513Z,2.50
2023-04-04T04:26:40.231Z,2.47
2023-04-04T04:29:09.014Z,2.85
2023-04-04T04:31:39.478Z,2.65
2023-04-04T04:34:09.674Z,2.33
2023-04-04T04:36:40.143Z,2.00
2023-04-04T04:39:28.748Z,2.55
2023-04-04T04:42:15.860Z,2.53
2023-04-04T04:44:51.719Z,3.58
2023-04-04T04:47:21.003Z,1.98
2023-04-04T04:49:50.300Z,1.90
2023-04-04T04:52:23.951Z,2.50
2023-04-04T04:54:56.046Z,1.95
2023-04-04T04:57:26.438Z,2.05
2023-04-04T04:59:56.753Z,2.38
2023-04-04T05:02:28.108Z,2.67
2023-04-04T05:04:57.344Z,4.03
2023-04-04T05:07:27.072Z,3.03
2023-04-04T05:09:57.577Z,2.22
2023-04-04T05:12:26.259Z,2.65
2023-04-04T05:14:57.225Z,2.22
2023-04-04T05:17:26.683Z,3.65
2023-04-04T05:19:59.345Z,2.38
2023-04-04T05:22:28.576Z,2.30
2023-04-04T05:24:59.632Z,2.55
2023-04-04T05:27:28.185Z,2.00
2023-04-04T05:30:00.824Z,2.60
2023-04-04T05:32:38.807Z,1.92
2023-04-04T05:35:15.046Z,2.83
2023-04-04T05:37:43.947Z,2.78
2023-04-04T05:40:18.830Z,2.08
2023-04-04T05:42:56.570Z,3.55
2023-04-04T05:45:28.624Z,1.95
2023-04-04T05:47:57.723Z,2.88
2023-04-04T05:50:28.488Z,2.45
2023-04-04T05:53:03.119Z,2.20
2023-04-04T05:55:33.119Z,3.03
2023-04-04T05:58:01.916Z,2.20
2023-04-04T06:00:45.522Z,2.25
2023-04-04T06:03:15.025Z,1.90
2023-04-04T06:05:45.266Z,2.10
2023-04-04T06:08:14.037Z,1.92
2023-04-04T06:10:43.952Z,2.00
2023-04-04T06:13:12.608Z,1.90
2023-04-04T06:15:43.958Z,1.90
2023-04-04T06:18:13.638Z,2.20
2023-04-04T06:20:42.521Z,2.28
2023-04-04T06:23:11.119Z,2.00
2023-04-04T06:25:45.446Z,2.22
2023-04-04T06:28:16.956Z,2.00
2023-04-04T06:30:48.398Z,2.65
2023-04-04T06:33:20.517Z,2.15
2023-04-04T06:35:51.099Z,3.08
2023-04-04T06:38:20.538Z,2.00
2023-04-04T06:40:50.492Z,2.33
2023-04-04T06:43:19.338Z,2.10
2023-04-04T06:45:48.444Z,2.13
2023-04-04T06:48:17.076Z,1.88
2023-04-04T06:50:46.284Z,3.20
2023-04-04T06:53:17.569Z,2.17
2023-04-04T06:55:46.323Z,2.25
2023-04-04T06:58:16.334Z,1.90
2023-04-04T07:00:44.974Z,1.70
2023-04-04T07:03:13.584Z,2.03
2023-04-04T07:05:42.773Z,1.70
2023-04-04T07:08:11.676Z,1.80
2023-04-04T07:10:41.264Z,1.80
2023-04-04T07:13:10.196Z,1.80
2023-04-04T07:15:40.170Z,1.90
2023-04-04T07:18:09.173Z,2.15
2023-04-04T07:20:38.029Z,1.90
2023-04-04T07:23:06.967Z,2.50
2023-04-04T07:25:35.476Z,1.90
2023-04-04T07:28:12.368Z,1.80
2023-04-04T07:30:43.431Z,2.70
2023-04-04T07:33:12.065Z,1.87
2023-04-04T07:35:40.731Z,1.80
2023-04-04T07:38:09.578Z,2.53
2023-04-04T07:40:46.972Z,1.80
2023-04-04T07:43:15.464Z,1.80
2023-04-04T07:45:45.656Z,1.83
2023-04-04T07:48:14.357Z,1.80
2023-04-04T07:50:42.851Z,1.70
2023-04-04T07:53:11.621Z,1.60
2023-04-04T07:55:40.230Z,2.17
2023-04-04T07:58:08.958Z,2.13
2023-04-04T08:00:37.901Z,2.20
2023-04-04T08:03:08.109Z,1.70
2023-04-04T08:05:36.767Z,2.07
2023-04-04T08:08:05.413Z,1.60
2023-04-04T08:10:34.173Z,1.77
2023-04-04T08:13:04.592Z,2.08
2023-04-04T08:15:33.298Z,2.87
2023-04-04T08:18:02.013Z,2.50
2023-04-04T08:20:32.144Z,1.65
2023-04-04T08:23:00.816Z,1.70
2023-04-04T08:25:29.497Z,1.70
2023-04-04T08:27:58.164Z,1.70
2023-04-04T08:30:26.831Z,1.90
2023-04-04T08:32:55.371Z,2.08
2023-04-04T08:35:23.992Z,2.60
2023-04-04T08:37:53.891Z,2.03
2023-04-04T08:40:22.521Z,1.60
2023-04-04T08:42:53.122Z,3.15
2023-04-04T08:45:24.661Z,2.45
2023-04-04T08:47:55.141Z,2.55
2023-04-04T08:50:25.287Z,1.70
2023-04-04T08:52:55.749Z,1.58
2023-04-04T08:55:24.690Z,1.60
2023-04-04T08:57:53.234Z,1.83
2023-04-04T09:00:22.959Z,1.58
2023-04-04T09:02:58.079Z,2.38
2023-04-04T09:05:27.362Z,1.90
2023-04-04T09:07:57.827Z,1.75
2023-04-04T09:10:27.220Z,1.70
2023-04-04T09:13:08.624Z,1.85
2023-04-04T09:15:47.810Z,1.77
2023-04-04T09:18:16.711Z,1.65
2023-04-04T09:20:46.789Z,2.00
2023-04-04T09:23:18.662Z,1.80
2023-04-04T09:28:22.177Z,2.30
2023-04-04T09:30:51.450Z,1.60
2023-04-04T09:33:22.251Z,2.00
2023-04-04T09:35:53.578Z,1.60
2023-04-04T09:38:25.357Z,1.60
2023-04-04T09:40:55.662Z,2.33
2023-04-04T09:43:26.119Z,1.60
2023-04-04T09:45:56.392Z,2.13
2023-04-04T09:48:29.018Z,1.50
2023-04-04T09:50:59.872Z,1.50
2023-04-04T09:53:30.002Z,1.83
2023-04-04T09:55:59.958Z,1.80
2023-04-04T09:58:32.063Z,1.67
2023-04-04T10:01:02.184Z,1.80
2023-04-04T10:03:31.739Z,2.35
2023-04-04T10:06:01.848Z,1.98
2023-04-04T10:08:32.313Z,1.67
2023-04-04T10:11:11.378Z,1.60
2023-04-04T10:13:44.087Z,1.90
2023-04-04T10:16:13.142Z,1.92
2023-04-04T10:18:42.445Z,1.70
2023-04-04T10:23:47.759Z,2.67
2023-04-04T10:26:16.671Z,1.50
2023-04-04T10:28:45.691Z,2.53
2023-04-04T10:31:25.656Z,3.30
2023-04-04T10:34:05.990Z,1.65
2023-04-04T10:36:40.826Z,1.85
2023-04-04T10:39:15.925Z,2.17
2023-04-04T10:41:46.331Z,1.90
2023-04-04T10:57:08.120Z,1.85
2023-04-04T10:59:57.114Z,1.42
2023-04-04T11:02:51.546Z,1.80
2023-04-04T11:05:22.903Z,1.60
2023-04-04T11:08:07.692Z,1.88
2023-04-04T11:10:38.419Z,1.80
2023-04-04T11:13:14.370Z,1.40
2023-04-04T11:15:48.839Z,1.70
2023-04-04T11:18:30.756Z,1.55
2023-04-04T11:21:03.664Z,1.52
2023-04-04T11:24:19.059Z,2.07
2023-04-04T11:26:48.623Z,2.45
2023-04-04T11:29:51.662Z,3.88
2023-04-04T11:32:36.361Z,1.58
2023-04-04T11:35:07.026Z,2.20
2023-04-04T11:37:45.133Z,1.83
2023-04-04T11:40:14.454Z,1.50
2023-04-04T11:42:43.578Z,2.25
2023-04-04T11:45:20.963Z,2.05
2023-04-04T11:47:50.368Z,2.17
2023-04-04T11:50:20.962Z,1.88
2023-04-04T11:52:49.544Z,1.85
2023-04-04T11:55:19.999Z,2.00
2023-04-04T11:57:50.621Z,1.67
2023-04-04T12:00:32.401Z,2.63
2023-04-04T12:03:01.242Z,1.50
2023-04-04T12:05:31.423Z,2.00
2023-04-04T12:08:01.969Z,2.13
2023-04-04T12:10:33.474Z,1.92
2023-04-04T12:13:02.834Z,1.73
2023-04-04T12:15:33.508Z,2.38
2023-04-04T12:18:02.607Z,1.83
2023-04-04T12:20:32.385Z,1.70
2023-04-04T12:23:01.009Z,1.95
2023-04-04T12:25:34.009Z,1.85
2023-04-04T12:28:05.196Z,1.50
2023-04-04T12:30:35.571Z,2.67
2023-04-04T12:33:04.670Z,1.50
2023-04-04T12:35:33.498Z,2.63
2023-04-04T12:38:07.658Z,1.63
2023-04-04T12:40:38.327Z,1.92
2023-04-04T12:43:09.147Z,1.90
2023-04-04T12:45:43.249Z,1.88
2023-04-04T12:48:14.158Z,1.40
2023-04-04T12:50:53.806Z,3.60
2023-04-04T12:55:55.841Z,3.20
2023-04-04T12:58:26.173Z,1.70
2023-04-04T13:00:59.938Z,2.78
2023-04-04T13:03:30.270Z,1.50
2023-04-04T13:06:00.685Z,1.95
2023-04-04T13:08:29.919Z,1.50
2023-04-04T13:11:00.029Z,1.60
2023-04-04T13:13:38.920Z,2.13
2023-04-04T13:16:09.831Z,1.60
2023-04-04T13:18:41.897Z,1.83
2023-04-04T13:21:11.669Z,1.75
2023-04-04T13:23:41.760Z,1.70
2023-04-04T13:26:11.857Z,1.50
2023-04-04T13:28:40.607Z,1.80
2023-04-04T13:31:11.873Z,1.80
2023-04-04T13:33:40.837Z,1.60
2023-04-04T13:36:09.829Z,1.63
2023-04-04T13:38:38.543Z,2.22
2023-04-04T13:41:07.099Z,1.70
2023-04-04T13:43:35.789Z,2.95
2023-04-04T13:46:04.422Z,1.83
2023-04-04T13:48:34.405Z,2.10
2023-04-04T13:51:02.982Z,1.85
2023-04-04T13:53:31.478Z,2.03
2023-04-04T13:56:17.198Z,2.30
2023-04-04T13:58:46.575Z,2.45
2023-04-04T14:01:22.633Z,1.90
2023-04-04T14:03:52.866Z,1.48
2023-04-04T14:06:21.583Z,1.80
2023-04-04T14:08:50.157Z,1.50
2023-04-04T14:11:18.702Z,4.03
2023-04-04T14:13:47.349Z,1.50
2023-04-04T14:16:16.401Z,1.60
2023-04-04T14:18:45.124Z,1.50
2023-04-04T14:21:15.032Z,2.15
2023-04-04T14:23:43.529Z,1.92
2023-04-04T14:26:12.382Z,1.50
2023-04-04T14:28:41.365Z,1.45
2023-04-04T14:31:35.373Z,1.60
2023-04-04T14:34:05.166Z,2.35
2023-04-04T14:36:36.128Z,2.63
2023-04-04T14:39:04.882Z,2.33
2023-04-04T14:41:33.572Z,1.73
2023-04-04T14:44:02.416Z,1.60
2023-04-04T14:46:31.501Z,2.08
2023-04-04T14:49:00.145Z,1.50
2023-04-04T14:51:28.957Z,1.50
2023-04-04T14:53:58.954Z,1.80
2023-04-04T14:56:27.584Z,1.65
2023-04-04T14:58:57.252Z,1.70
2023-04-04T15:01:25.912Z,1.65
2023-04-04T15:03:55.824Z,1.80
2023-04-04T15:06:24.579Z,2.03
2023-04-04T15:08:53.234Z,2.25
2023-04-04T15:11:23.165Z,1.60
2023-04-04T15:13:51.736Z,1.73
2023-04-04T15:16:20.204Z,2.55
2023-04-04T15:18:48.820Z,1.50
2023-04-04T15:21:17.567Z,1.92
2023-04-04T15:23:46.182Z,1.70
2023-04-04T15:26:14.699Z,1.50
2023-04-04T15:28:44.959Z,2.10
2023-04-04T15:31:14.179Z,1.83
2023-04-04T15:33:43.034Z,2.10
2023-04-04T15:36:11.800Z,1.77
2023-04-04T15:38:40.949Z,2.03
2023-04-04T15:41:10.796Z,2.13
2023-04-04T15:43:39.251Z,1.60
2023-04-04T15:46:09.228Z,1.50
2023-04-04T15:48:37.750Z,1.95
2023-04-04T15:51:07.561Z,1.98
2023-04-04T15:53:36.484Z,1.88
2023-04-04T15:56:05.001Z,2.00
2023-04-04T15:58:33.600Z,1.63
2023-04-04T16:01:02.163Z,1.70
2023-04-04T16:03:32.560Z,1.85
2023-04-04T16:06:01.732Z,1.60
2023-04-04T16:08:30.233Z,3.17
2023-04-04T16:10:59.125Z,1.60
2023-04-04T16:13:27.732Z,1.60
2023-04-04T16:15:56.662Z,2.60
2023-04-04T16:18:25.608Z,2.33
2023-04-04T16:20:55.565Z,2.45
2023-04-04T16:23:24.085Z,1.70
2023-04-04T16:25:52.572Z,2.35
2023-04-04T16:28:21.162Z,2.60
2023-04-04T16:30:49.710Z,2.65
2023-04-04T16:33:18.208Z,1.70
2023-04-04T16:35:47.000Z,1.70
2023-04-04T16:38:17.587Z,2.40
2023-04-04T16:40:46.277Z,2.25
2023-04-04T16:43:14.869Z,3.10
2023-04-04T16:45:43.550Z,2.72
2023-04-04T16:48:12.211Z,1.80
2023-04-04T16:50:41.167Z,1.60
2023-04-04T16:53:11.059Z,2.25
2023-04-04T16:55:41.124Z,1.83
2023-04-04T16:58:12.919Z,1.60
2023-04-04T17:00:41.965Z,1.70
2023-04-04T17:03:11.815Z,3.67
2023-04-04T17:05:40.684Z,2.40
2023-04-04T17:08:09.419Z,2.20
2023-04-04T17:10:40.515Z,2.22
2023-04-04T17:13:10.945Z,2.08
2023-04-04T17:15:39.610Z,1.67
2023-04-04T17:18:08.675Z,2.65
2023-04-04T17:20:38.237Z,2.22
2023-04-04T17:23:07.214Z,2.05
2023-04-04T17:25:36.023Z,3.10
2023-04-04T17:28:05.598Z,1.70
2023-04-04T17:30:35.691Z,2.58
2023-04-04T17:33:05.145Z,1.70
2023-04-04T17:35:34.731Z,2.38
2023-04-04T17:38:03.471Z,2.22
2023-04-04T17:40:31.952Z,3.22
2023-04-04T17:43:00.535Z,2.28
2023-04-04T17:45:29.559Z,1.90
2023-04-04T17:47:59.557Z,2.08
2023-04-04T17:50:28.240Z,2.00
2023-04-04T17:52:56.787Z,2.60
2023-04-04T17:55:27.077Z,4.03
2023-04-04T17:57:56.912Z,2.33
2023-04-04T18:00:25.721Z,2.60
2023-04-04T18:02:54.431Z,4.50
2023-04-04T18:05:24.773Z,3.40
2023-04-04T18:07:53.365Z,3.92
2023-04-04T18:10:21.988Z,3.42
2023-04-04T18:12:50.550Z,3.35
2023-04-04T18:15:19.959Z,4.72
2023-04-04T18:17:48.712Z,6.18
2023-04-04T18:20:27.630Z,4.65
2023-04-04T18:23:07.338Z,4.10
2023-04-04T18:25:36.052Z,5.30
2023-04-04T18:28:04.562Z,3.30
2023-04-04T18:30:35.810Z,2.50
2023-04-04T18:33:25.011Z,3.30
2023-04-04T18:35:54.122Z,4.20
2023-04-04T18:38:25.194Z,3.10
2023-04-04T18:40:53.876Z,4.00
2023-04-04T18:43:23.694Z,2.83
2023-04-04T18:45:52.284Z,3.70
2023-04-04T18:48:23.913Z,3.05
2023-04-04T18:50:52.821Z,2.00
2023-04-04T18:53:21.469Z,3.83
2023-04-04T18:55:53.369Z,3.33
2023-04-04T18:58:29.921Z,3.38
2023-04-04T19:00:58.785Z,2.20
2023-04-04T19:03:27.600Z,2.30
2023-04-04T19:06:07.740Z,3.93
2023-04-04T19:08:40.512Z,2.53
2023-04-04T19:11:11.201Z,2.38
2023-04-04T19:13:43.029Z,4.15
2023-04-04T19:16:24.220Z,2.45
2023-04-04T19:19:34.334Z,2.38
2023-04-04T19:22:02.981Z,2.00
2023-04-04T19:24:31.801Z,1.80
2023-04-04T19:27:02.670Z,2.35
2023-04-04T19:29:32.257Z,1.90
2023-04-04T19:32:03.614Z,2.08
2023-04-04T19:34:33.069Z,2.05
2023-04-04T19:37:13.193Z,2.25
2023-04-04T19:39:43.820Z,3.20
2023-04-04T19:42:13.956Z,2.20
2023-04-04T19:44:44.686Z,1.97
2023-04-04T19:47:47.485Z,2.10
2023-04-04T19:50:35.669Z,2.72
2023-04-04T19:53:23.020Z,2.35
2023-04-04T20:11:57.972Z,2.83
2023-04-04T20:14:26.486Z,2.65
2023-04-04T20:16:55.427Z,2.25
2023-04-04T20:19:28.929Z,4.20
2023-04-04T20:21:57.642Z,3.85
2023-04-04T20:24:26.243Z,3.90
2023-04-04T20:26:56.939Z,2.38
2023-04-04T20:29:29.032Z,3.38
2023-04-04T20:31:58.987Z,4.00
2023-04-04T20:34:41.736Z,2.95
2023-04-04T20:37:13.706Z,4.95
2023-04-04T20:39:46.423Z,6.10
2023-04-04T20:42:40.407Z,5.15
2023-04-04T20:45:38.519Z,2.55
2023-04-04T20:48:08.082Z,2.10
2023-04-04T20:50:47.407Z,4.65
2023-04-04T20:53:20.325Z,4.68
2023-04-04T20:55:50.641Z,3.97
2023-04-04T20:58:30.154Z,4.20
2023-04-04T21:01:01.792Z,3.70
2023-04-04T21:03:38.074Z,5.18
2023-04-04T21:06:13.013Z,3.50
2023-04-04T21:08:44.348Z,2.95
2023-04-04T21:11:14.060Z,2.58
2023-04-04T21:13:54.850Z,4.00
2023-04-04T21:16:29.572Z,3.20
2023-04-04T21:19:00.305Z,3.03
2023-04-04T21:21:29.326Z,5.20
2023-04-04T21:23:59.804Z,2.78
2023-04-04T21:26:30.696Z,3.28
2023-04-04T21:29:00.896Z,2.72
2023-04-04T21:31:36.780Z,3.80
2023-04-04T21:34:10.659Z,3.83
2023-04-04T21:36:40.866Z,3.85
2023-04-04T21:39:13.068Z,4.35
2023-04-04T21:41:44.010Z,3.53
2023-04-04T21:44:12.727Z,4.47
2023-04-04T21:46:43.304Z,3.30
2023-04-04T21:49:12.566Z,5.50
2023-04-04T21:51:41.312Z,5.03
2023-04-04T21:54:10.181Z,4.75
2023-04-04T21:56:39.025Z,5.15
2023-04-04T21:59:09.333Z,4.65
2023-04-04T22:01:38.880Z,3.42
2023-04-04T22:04:08.876Z,3.45
2023-04-04T22:06:37.325Z,4.57
2023-04-04T22:09:06.695Z,5.95
2023-04-04T22:11:42.724Z,5.18
2023-04-04T22:14:17.490Z,3.07
2023-04-04T22:16:46.616Z,8.45
2023-04-04T22:19:16.529Z,8.23
2023-04-04T22:21:47.871Z,5.57
2023-04-04T22:24:18.294Z,4.05
2023-04-04T22:26:47.550Z,3.95
2023-04-04T22:29:16.173Z,4.47
2023-04-04T22:31:44.808Z,4.18
2023-04-04T22:34:14.917Z,3.90
2023-04-04T22:36:45.361Z,5.32
2023-04-04T22:39:16.160Z,6.65
2023-04-04T22:41:45.655Z,4.55
2023-04-04T22:44:14.255Z,6.20
2023-04-04T22:46:43.036Z,3.80
2023-04-04T22:49:11.490Z,6.47
2023-04-04T22:51:45.117Z,4.57
2023-04-04T22:54:17.239Z,6.07
2023-04-04T22:56:46.487Z,4.40
2023-04-04T22:59:15.504Z,4.18
2023-04-04T23:01:51.522Z,3.45
2023-04-04T23:04:20.128Z,4.80
2023-04-04T23:06:48.610Z,4.20
2023-04-04T23:09:18.428Z,6.45
2023-04-04T23:11:47.006Z,4.50
2023-04-04T23:14:15.834Z,5.55
2023-04-04T23:16:57.043Z,8.05
2023-04-04T23:19:25.503Z,5.65
2023-04-04T23:21:54.014Z,5.57
2023-04-04T23:24:24.449Z,4.47
2023-04-04T23:26:52.886Z,3.63
2023-04-04T23:29:21.386Z,5.93
2023-04-04T23:31:49.916Z,4.10
2023-04-04T23:34:18.470Z,3.30
2023-04-04T23:36:46.949Z,4.72
2023-04-04T23:39:15.943Z,3.57
2023-04-04T23:41:46.004Z,2.90
2023-04-04T23:44:14.457Z,4.22
2023-04-04T23:46:43.048Z,2.70
2023-04-04T23:49:13.137Z,3.00
2023-04-04T23:51:42.406Z,5.18
2023-04-04T23:54:12.256Z,4.43
2023-04-04T23:56:41.410Z,6.60
2023-04-04T23:59:11.520Z,3.90
